Time;durP1;ratioP1;P1;durP2;ratioP2;P2;SDS_P1;SDS_P2;PMS_P1;PMS_P2;Temp;Humidity;BMP_temperature;BMP_pressure;BME280_temperature;BME280_humidity;BME280_pressure;Samples;Min_cycle;Max_cycle;Signal;HPM_P1;HPM_P2
2021/06/27 00:00:34;;;;;;;2.78;2.55;;;17.80;67.40;;;;;;3578544;40;20017;-74
2021/06/27 00:03:01;;;;;;;3.08;2.40;;;17.80;67.60;;;;;;3578276;40;20035;-74
2021/06/27 00:05:28;;;;;;;2.13;1.90;;;17.70;67.70;;;;;;3577392;40;20425;-75
2021/06/27 00:07:55;;;;;;;3.38;2.20;;;17.70;67.90;;;;;;3566120;40;20104;-74
2021/06/27 00:10:34;;;;;;;3.20;2.38;;;17.70;68.00;;;;;;3574648;40;20029;-74
2021/06/27 00:13:00;;;;;;;2.63;2.30;;;17.70;68.50;;;;;;3572587;40;20033;-74
2021/06/27 00:15:33;;;;;;;2.97;2.47;;;17.60;68.50;;;;;;3571491;40;20036;-74
2021/06/27 00:18:00;;;;;;;3.13;2.33;;;17.60;68.60;;;;;;3551953;40;20036;-75
2021/06/27 00:20:29;;;;;;;3.03;2.40;;;17.70;68.60;;;;;;3570760;40;20128;-75
2021/06/27 00:22:55;;;;;;;4.05;2.22;;;17.60;68.30;;;;;;3577086;40;20080;-75
2021/06/27 00:25:24;;;;;;;2.88;2.60;;;17.70;68.20;;;;;;3565948;40;20033;-74
2021/06/27 00:27:50;;;;;;;3.13;2.38;;;17.70;68.30;;;;;;3573889;40;20139;-75
2021/06/27 00:30:19;;;;;;;2.58;2.38;;;17.60;68.30;;;;;;3562609;40;20310;-75
2021/06/27 00:32:45;;;;;;;2.80;2.50;;;17.50;68.60;;;;;;3573284;40;20032;-75
2021/06/27 00:35:13;;;;;;;2.85;2.50;;;17.50;69.00;;;;;;3579477;40;20032;-74
2021/06/27 00:37:39;;;;;;;3.33;2.35;;;17.40;69.20;;;;;;3578002;40;20601;-74
2021/06/27 00:40:11;;;;;;;3.95;2.55;;;17.30;69.70;;;;;;3565371;40;20130;-74
2021/06/27 00:42:37;;;;;;;2.78;2.42;;;17.30;69.90;;;;;;3564963;40;20072;-74
2021/06/27 00:45:06;;;;;;;2.88;2.58;;;17.30;69.70;;;;;;3575565;40;20652;-74
2021/06/27 00:47:36;;;;;;;3.20;2.60;;;17.30;70.00;;;;;;3577452;40;20024;-75
2021/06/27 00:50:04;;;;;;;2.80;2.42;;;17.20;70.30;;;;;;3570387;40;20037;-70
2021/06/27 00:52:29;;;;;;;2.60;2.40;;;17.30;70.80;;;;;;3571236;40;20041;-70
2021/06/27 00:54:55;;;;;;;3.67;2.80;;;17.20;70.00;;;;;;3579157;40;20114;-70
2021/06/27 00:57:21;;;;;;;2.90;2.67;;;17.20;70.10;;;;;;3577027;40;20064;-70
2021/06/27 00:59:46;;;;;;;3.38;2.40;;;17.20;70.50;;;;;;3574623;40;20059;-69
2021/06/27 01:02:13;;;;;;;3.50;2.30;;;17.20;70.70;;;;;;3572873;40;20032;-69
2021/06/27 01:04:39;;;;;;;2.67;2.30;;;17.20;70.50;;;;;;3571501;40;20033;-70
2021/06/27 01:07:06;;;;;;;4.25;2.63;;;17.10;70.80;;;;;;3560145;40;20067;-70
2021/06/27 01:09:32;;;;;;;2.90;2.25;;;17.10;71.00;;;;;;3570793;40;20037;-70
2021/06/27 01:11:59;;;;;;;3.35;2.47;;;17.00;71.10;;;;;;3562330;40;20029;-70
2021/06/27 01:14:26;;;;;;;3.85;2.75;;;17.00;71.30;;;;;;3573435;40;20029;-70
2021/06/27 01:16:52;;;;;;;3.58;2.58;;;16.90;71.60;;;;;;3575013;40;20033;-69
2021/06/27 01:19:18;;;;;;;2.75;2.35;;;16.90;71.70;;;;;;3566384;40;20114;-70
2021/06/27 01:21:44;;;;;;;3.58;2.92;;;16.90;71.80;;;;;;3577604;40;20529;-70
2021/06/27 01:24:10;;;;;;;2.45;2.25;;;17.00;72.00;;;;;;3569253;40;20114;-70
2021/06/27 01:26:35;;;;;;;2.53;2.33;;;16.90;71.00;;;;;;3578402;40;20033;-69
2021/06/27 01:29:02;;;;;;;6.95;2.63;;;16.80;71.10;;;;;;3576721;40;20032;-69
2021/06/27 01:31:28;;;;;;;3.13;2.40;;;16.80;71.00;;;;;;3574860;40;20047;-69
2021/06/27 01:33:55;;;;;;;3.03;2.20;;;16.80;71.30;;;;;;3573532;40;20355;-69
2021/06/27 01:36:22;;;;;;;2.78;2.55;;;16.80;71.80;;;;;;3572094;40;20049;-69
2021/06/27 01:38:49;;;;;;;2.88;2.53;;;16.80;71.70;;;;;;3561167;40;20025;-70
2021/06/27 01:41:15;;;;;;;3.88;2.50;;;16.70;72.00;;;;;;3578667;40;20037;-69
2021/06/27 01:43:41;;;;;;;3.55;2.90;;;16.60;72.50;;;;;;3577627;40;20398;-69
2021/06/27 01:46:07;;;;;;;3.78;2.50;;;16.60;72.80;;;;;;3575866;40;20025;-69
2021/06/27 01:48:34;;;;;;;2.53;2.33;;;16.50;73.10;;;;;;3574070;40;20059;-69
2021/06/27 01:51:02;;;;;;;3.78;2.88;;;16.50;73.40;;;;;;3574473;40;20048;-70
2021/06/27 01:53:32;;;;;;;3.83;2.80;;;16.50;73.40;;;;;;3554072;40;20047;-72
2021/06/27 01:56:18;;;;;;;2.63;2.40;;;16.50;73.30;;;;;;3578108;40;20030;-72
2021/06/27 01:58:47;;;;;;;2.83;2.60;;;16.50;72.90;;;;;;3569142;40;20068;-69
2021/06/27 02:01:17;;;;;;;3.80;2.67;;;16.50;72.70;;;;;;3572270;40;20086;-69
2021/06/27 02:03:43;;;;;;;3.20;2.50;;;16.40;72.60;;;;;;3572725;40;20411;-69
2021/06/27 02:06:09;;;;;;;3.38;2.67;;;16.40;72.30;;;;;;3564691;40;20017;-69
2021/06/27 02:08:37;;;;;;;2.95;2.60;;;16.40;72.90;;;;;;3573865;40;20385;-69
2021/06/27 02:11:05;;;;;;;5.50;3.42;;;16.40;73.00;;;;;;3566912;40;20096;-69
2021/06/27 02:13:31;;;;;;;4.28;3.33;;;16.30;72.60;;;;;;3578323;40;20069;-70
2021/06/27 02:15:57;;;;;;;4.85;2.92;;;16.20;73.10;;;;;;3574891;40;20037;-69
2021/06/27 02:18:33;;;;;;;5.57;3.30;;;16.20;72.80;;;;;;3573802;40;20040;-69
2021/06/27 02:21:03;;;;;;;;;;;16.20;73.00;;;;;;3575983;40;20130;-69
2021/06/27 02:23:30;;;;;;;4.85;3.20;;;16.10;73.20;;;;;;3573723;40;19929;-69
2021/06/27 02:25:56;;;;;;;3.72;2.83;;;16.10;73.60;;;;;;3571482;40;20025;-69
2021/06/27 02:28:22;;;;;;;3.58;3.08;;;16.00;73.80;;;;;;3560830;40;20110;-69
2021/06/27 02:30:49;;;;;;;5.15;3.10;;;15.90;74.20;;;;;;3568630;40;20040;-70
2021/06/27 02:33:15;;;;;;;4.13;3.17;;;15.80;74.60;;;;;;3571435;40;20032;-69
2021/06/27 02:35:40;;;;;;;3.53;2.75;;;15.80;75.10;;;;;;3564926;40;20024;-69
2021/06/27 02:38:07;;;;;;;3.22;2.75;;;15.70;75.30;;;;;;3572784;40;20029;-69
2021/06/27 02:40:33;;;;;;;4.97;2.70;;;15.70;75.50;;;;;;3573802;40;20699;-69
2021/06/27 02:42:59;;;;;;;3.50;3.20;;;15.70;75.90;;;;;;3575999;40;20070;-69
2021/06/27 02:45:25;;;;;;;4.57;3.03;;;15.70;76.30;;;;;;3576947;40;20552;-69
2021/06/27 02:47:50;;;;;;;3.70;2.97;;;15.70;76.60;;;;;;3578228;40;20037;-69
2021/06/27 02:50:17;;;;;;;9.25;3.42;;;15.70;76.30;;;;;;3576427;40;20044;-69
2021/06/27 02:52:44;;;;;;;3.83;2.80;;;15.70;75.80;;;;;;3565535;40;20043;-69
2021/06/27 02:55:11;;;;;;;3.40;2.65;;;15.70;75.70;;;;;;3564300;40;20410;-69
2021/06/27 02:57:39;;;;;;;4.00;2.65;;;15.70;75.90;;;;;;3576163;40;20125;-69
2021/06/27 03:00:07;;;;;;;4.25;3.15;;;15.70;75.90;;;;;;3569856;40;20136;-68
2021/06/27 03:02:33;;;;;;;4.43;3.30;;;15.70;75.80;;;;;;3566146;40;20131;-69
2021/06/27 03:04:59;;;;;;;3.30;2.78;;;15.70;75.90;;;;;;3579790;40;20033;-69
2021/06/27 03:07:24;;;;;;;3.65;3.00;;;15.60;75.70;;;;;;3579533;40;20060;-69
2021/06/27 03:09:50;;;;;;;2.92;2.63;;;15.60;75.90;;;;;;3568991;40;20037;-69
2021/06/27 03:12:16;;;;;;;3.58;2.80;;;15.60;76.20;;;;;;3576950;40;20028;-69
2021/06/27 03:14:42;;;;;;;3.70;3.17;;;15.50;76.50;;;;;;3575796;40;20146;-69
2021/06/27 03:17:07;;;;;;;3.60;2.97;;;15.50;76.70;;;;;;3562453;40;20033;-69
2021/06/27 03:19:34;;;;;;;4.35;3.17;;;15.50;76.80;;;;;;3576040;40;20307;-69
2021/06/27 03:22:00;;;;;;;3.90;3.28;;;15.50;77.00;;;;;;3576522;40;20026;-69
2021/06/27 03:24:26;;;;;;;3.95;3.13;;;15.50;77.00;;;;;;3562484;40;20033;-69
2021/06/27 03:26:52;;;;;;;3.97;3.38;;;15.50;77.30;;;;;;3564792;40;20025;-69
2021/06/27 03:29:18;;;;;;;4.07;3.33;;;15.50;77.40;;;;;;3575117;40;20037;-69
2021/06/27 03:31:43;;;;;;;8.68;3.13;;;15.60;77.50;;;;;;3567124;40;20036;-69
2021/06/27 03:34:09;;;;;;;3.83;3.15;;;15.50;77.40;;;;;;3578318;40;20629;-69
2021/06/27 03:36:35;;;;;;;4.10;3.20;;;15.50;77.20;;;;;;3579309;40;20544;-69
2021/06/27 03:41:33;;;;;;;3.50;3.08;;;15.50;77.30;;;;;;3573069;40;20829;-69
2021/06/27 03:43:59;;;;;;;3.30;2.83;;;15.50;77.40;;;;;;3567327;40;20032;-72
2021/06/27 03:46:26;;;;;;;3.35;3.05;;;15.50;77.70;;;;;;3574257;40;20044;-71
2021/06/27 03:48:52;;;;;;;3.33;2.92;;;15.50;78.20;;;;;;3568943;40;20024;-72
2021/06/27 03:51:18;;;;;;;3.78;3.30;;;15.50;78.50;;;;;;3578412;40;20044;-72
2021/06/27 03:53:44;;;;;;;3.90;3.42;;;15.50;78.30;;;;;;3570051;40;20033;-71
2021/06/27 03:56:10;;;;;;;3.35;3.00;;;15.60;77.90;;;;;;3577150;40;20121;-71
2021/06/27 03:58:36;;;;;;;3.85;3.00;;;15.60;77.40;;;;;;3572855;40;20016;-72
2021/06/27 04:01:02;;;;;;;5.63;2.92;;;15.60;77.10;;;;;;3574629;40;20145;-69
2021/06/27 04:03:28;;;;;;;3.58;3.28;;;15.60;76.70;;;;;;3576245;40;20024;-69
2021/06/27 04:05:53;;;;;;;3.83;3.15;;;15.60;76.70;;;;;;3578052;40;20303;-69
2021/06/27 04:08:19;;;;;;;6.93;3.38;;;15.60;76.70;;;;;;3569370;40;20076;-70
2021/06/27 04:10:45;;;;;;;5.50;3.35;;;15.60;76.80;;;;;;3570607;40;20033;-71
2021/06/27 04:13:11;;;;;;;5.15;3.58;;;15.50;77.50;;;;;;3574911;40;20037;-69
2021/06/27 04:15:36;;;;;;;4.10;3.47;;;15.50;78.00;;;;;;3574528;40;20024;-69
2021/06/27 04:18:02;;;;;;;4.30;3.00;;;15.50;78.30;;;;;;3574630;40;20049;-69
2021/06/27 04:20:28;;;;;;;3.90;3.58;;;15.60;78.40;;;;;;3576356;40;20869;-71
2021/06/27 04:22:54;;;;;;;3.90;3.50;;;15.60;78.50;;;;;;3577822;40;20032;-69
2021/06/27 04:25:19;;;;;;;4.18;3.55;;;15.60;78.70;;;;;;3579738;40;20424;-69
2021/06/27 04:27:45;;;;;;;4.47;3.65;;;15.70;78.70;;;;;;3579374;40;20038;-69
2021/06/27 04:30:11;;;;;;;4.70;3.47;;;15.80;78.90;;;;;;3577711;40;20036;-69
2021/06/27 04:32:37;;;;;;;3.97;3.25;;;15.80;79.10;;;;;;3566834;40;20048;-69
2021/06/27 04:35:06;;;;;;;4.38;3.40;;;15.90;78.90;;;;;;3575640;40;20076;-69
2021/06/27 04:37:32;;;;;;;3.72;3.15;;;16.00;79.00;;;;;;3573019;40;20032;-69
2021/06/27 04:39:58;;;;;;;5.53;3.75;;;16.10;79.10;;;;;;3570764;40;20040;-70
2021/06/27 04:42:24;;;;;;;3.33;3.03;;;16.10;79.00;;;;;;3569918;40;20029;-69
2021/06/27 04:44:49;;;;;;;4.93;3.28;;;16.20;79.00;;;;;;3570566;40;20033;-69
2021/06/27 04:47:15;;;;;;;4.53;3.70;;;16.30;79.10;;;;;;3574809;40;20022;-69
2021/06/27 04:49:41;;;;;;;3.72;3.35;;;16.40;79.10;;;;;;3574470;40;20070;-69
2021/06/27 04:52:08;;;;;;;3.83;3.35;;;16.50;79.00;;;;;;3574327;40;20041;-69
2021/06/27 04:54:35;;;;;;;4.20;3.42;;;16.60;79.00;;;;;;3572501;40;20037;-69
2021/06/27 04:57:01;;;;;;;6.40;3.45;;;16.60;78.90;;;;;;3572297;40;20056;-69
2021/06/27 04:59:26;;;;;;;3.55;3.08;;;16.70;78.90;;;;;;3569493;40;20074;-69
2021/06/27 05:01:53;;;;;;;7.03;3.15;;;16.70;78.80;;;;;;3571494;40;20056;-69
2021/06/27 05:04:18;;;;;;;4.75;3.47;;;16.80;78.70;;;;;;3572766;40;20040;-69
2021/06/27 05:06:44;;;;;;;5.63;3.92;;;16.90;78.50;;;;;;3573016;40;20106;-70
2021/06/27 05:09:10;;;;;;;6.40;3.50;;;17.00;78.30;;;;;;3575185;40;20075;-69
2021/06/27 05:11:35;;;;;;;5.15;3.90;;;17.10;78.20;;;;;;3571579;40;20032;-69
2021/06/27 05:14:01;;;;;;;3.95;3.55;;;17.20;78.10;;;;;;3574239;40;20032;-70
2021/06/27 05:16:27;;;;;;;5.45;4.00;;;17.30;78.20;;;;;;3564294;40;20072;-70
2021/06/27 05:18:53;;;;;;;4.88;3.28;;;17.40;78.30;;;;;;3569851;40;20406;-70
2021/06/27 05:21:19;;;;;;;5.50;4.15;;;17.40;78.40;;;;;;3573032;40;20044;-70
2021/06/27 05:23:44;;;;;;;4.78;3.42;;;17.60;78.10;;;;;;3575193;40;20029;-69
2021/06/27 05:26:10;;;;;;;3.80;3.35;;;17.80;77.50;;;;;;3576829;40;20040;-69
2021/06/27 05:28:36;;;;;;;5.10;3.90;;;18.00;76.80;;;;;;3567531;40;20071;-69
2021/06/27 05:31:02;;;;;;;4.63;3.90;;;18.10;76.20;;;;;;3577590;40;20640;-70
2021/06/27 05:33:27;;;;;;;5.43;3.75;;;18.30;76.10;;;;;;3571524;40;20508;-69
2021/06/27 05:35:53;;;;;;;4.93;4.03;;;18.40;75.70;;;;;;3570491;40;20048;-70
2021/06/27 05:38:19;;;;;;;4.35;3.70;;;18.50;75.50;;;;;;3572178;40;20054;-70
2021/06/27 05:40:45;;;;;;;5.25;3.63;;;18.60;75.40;;;;;;3573424;40;20039;-69
2021/06/27 05:43:10;;;;;;;4.32;3.50;;;18.70;76.00;;;;;;3575364;40;20029;-70
2021/06/27 05:45:36;;;;;;;4.38;3.97;;;18.80;75.50;;;;;;3576391;40;20438;-69
2021/06/27 05:48:02;;;;;;;6.30;3.50;;;18.80;75.50;;;;;;3578108;40;20028;-70
2021/06/27 05:50:28;;;;;;;6.47;4.03;;;18.90;73.90;;;;;;3577732;40;20068;-69
2021/06/27 05:52:54;;;;;;;4.10;3.67;;;19.00;72.00;;;;;;3574804;40;20024;-69
2021/06/27 05:55:19;;;;;;;4.43;3.40;;;19.20;72.60;;;;;;3573159;40;20122;-69
2021/06/27 05:57:45;;;;;;;3.78;3.45;;;19.30;72.80;;;;;;3573685;40;20144;-70
2021/06/27 06:00:11;;;;;;;3.45;3.08;;;19.40;72.50;;;;;;3573279;40;20130;-69
2021/06/27 06:02:37;;;;;;;3.80;3.38;;;19.60;69.30;;;;;;3572495;40;20095;-70
2021/06/27 06:05:03;;;;;;;4.78;3.22;;;19.70;70.30;;;;;;3569304;40;20036;-69
2021/06/27 06:07:28;;;;;;;3.50;3.15;;;19.80;70.20;;;;;;3572925;40;20040;-69
2021/06/27 06:09:54;;;;;;;3.38;3.08;;;20.00;70.20;;;;;;3567526;40;20125;-69
2021/06/27 06:12:19;;;;;;;4.53;3.45;;;20.10;69.10;;;;;;3566933;40;20029;-70
2021/06/27 06:14:45;;;;;;;3.60;3.30;;;20.20;66.80;;;;;;3563873;40;20033;-70
2021/06/27 06:17:11;;;;;;;3.20;2.90;;;20.30;66.60;;;;;;3574033;40;20025;-69
2021/06/27 06:19:37;;;;;;;3.70;3.30;;;20.40;67.10;;;;;;3572267;40;20127;-70
2021/06/27 06:22:03;;;;;;;3.85;3.22;;;20.50;65.20;;;;;;3574813;40;20464;-70
2021/06/27 06:24:29;;;;;;;4.00;3.28;;;20.70;65.80;;;;;;3560097;40;20029;-70
2021/06/27 06:26:54;;;;;;;4.20;2.88;;;20.80;65.80;;;;;;3574888;40;20025;-70
2021/06/27 06:29:20;;;;;;;3.63;2.95;;;21.00;64.40;;;;;;3568808;40;20129;-70
2021/06/27 06:31:46;;;;;;;5.50;3.10;;;21.00;63.00;;;;;;3576153;40;20036;-70
2021/06/27 06:34:12;;;;;;;4.03;3.13;;;21.20;62.10;;;;;;3570402;40;20025;-69
2021/06/27 06:36:37;;;;;;;4.25;2.97;;;21.20;61.80;;;;;;3578843;40;20056;-70
2021/06/27 06:39:05;;;;;;;3.75;3.35;;;21.40;61.10;;;;;;3579710;40;20719;-70
2021/06/27 06:41:31;;;;;;;5.05;3.45;;;21.50;60.50;;;;;;3570745;40;20323;-70
2021/06/27 06:43:57;;;;;;;6.18;3.47;;;21.60;59.90;;;;;;3578051;40;20440;-70
2021/06/27 06:46:23;;;;;;;3.80;2.80;;;21.60;59.70;;;;;;3575929;40;20025;-70
2021/06/27 06:48:49;;;;;;;3.08;2.78;;;21.70;59.70;;;;;;3576458;40;20026;-70
2021/06/27 06:51:17;;;;;;;3.78;3.13;;;21.80;60.00;;;;;;3576818;40;20049;-70
2021/06/27 06:53:42;;;;;;;2.90;2.60;;;21.90;59.30;;;;;;3562052;40;20062;-70
2021/06/27 06:56:08;;;;;;;3.88;2.90;;;22.00;58.70;;;;;;3570768;40;20041;-71
2021/06/27 06:58:34;;;;;;;2.97;2.67;;;22.10;58.20;;;;;;3572035;40;20033;-70
2021/06/27 07:01:00;;;;;;;6.25;2.92;;;22.20;57.90;;;;;;3573004;40;20505;-70
2021/06/27 07:03:27;;;;;;;3.92;2.70;;;22.30;57.80;;;;;;3574821;40;20043;-70
2021/06/27 07:05:53;;;;;;;4.53;2.70;;;22.40;57.10;;;;;;3574712;40;20025;-70
2021/06/27 07:08:19;;;;;;;2.70;2.35;;;22.50;56.70;;;;;;3572534;40;20048;-70
2021/06/27 07:10:45;;;;;;;3.05;2.38;;;22.60;56.10;;;;;;3574645;40;20056;-70
2021/06/27 07:13:10;;;;;;;2.42;2.20;;;22.60;55.30;;;;;;3579563;40;20888;-70
2021/06/27 07:15:36;;;;;;;2.78;2.47;;;22.70;54.90;;;;;;3578367;40;20040;-70
2021/06/27 07:18:02;;;;;;;4.57;2.80;;;22.80;54.00;;;;;;3568221;40;20040;-70
2021/06/27 07:20:28;;;;;;;2.60;2.40;;;22.90;54.00;;;;;;3575056;40;20040;-70
2021/06/27 07:22:54;;;;;;;3.53;2.22;;;22.90;53.30;;;;;;3565347;40;20366;-71
2021/06/27 07:25:19;;;;;;;3.55;2.63;;;23.00;53.60;;;;;;3572291;40;20063;-70
2021/06/27 07:27:45;;;;;;;2.50;2.30;;;23.10;53.60;;;;;;3560891;40;20394;-70
2021/06/27 07:30:11;;;;;;;3.38;2.60;;;23.20;53.20;;;;;;3573311;40;20032;-70
2021/06/27 07:32:37;;;;;;;2.78;2.38;;;23.30;53.30;;;;;;3575231;40;20030;-71
2021/06/27 07:35:04;;;;;;;3.30;2.53;;;23.30;52.80;;;;;;3576105;40;20041;-71
2021/06/27 07:37:30;;;;;;;3.17;2.30;;;23.40;53.00;;;;;;3576006;40;20052;-70
2021/06/27 07:39:55;;;;;;;3.92;2.63;;;23.50;53.30;;;;;;3578742;40;20130;-70
2021/06/27 07:42:21;;;;;;;3.35;2.50;;;23.60;52.90;;;;;;3566680;40;20029;-71
2021/06/27 07:44:47;;;;;;;2.63;2.38;;;23.70;52.60;;;;;;3575596;40;20024;-70
2021/06/27 07:47:13;;;;;;;3.63;2.60;;;23.80;52.00;;;;;;3576406;40;20675;-70
2021/06/27 07:49:39;;;;;;;3.03;2.70;;;23.80;51.40;;;;;;3577281;40;20024;-70
2021/06/27 07:52:07;;;;;;;2.65;2.40;;;23.80;51.30;;;;;;3574344;40;20031;-73
2021/06/27 07:54:33;;;;;;;3.67;2.60;;;23.90;52.30;;;;;;3569187;40;20036;-72
2021/06/27 07:56:59;;;;;;;2.35;2.15;;;23.90;51.60;;;;;;3567866;40;20438;-72
2021/06/27 07:59:24;;;;;;;8.38;4.68;;;24.00;51.40;;;;;;3577062;40;20024;-70
2021/06/27 08:01:50;;;;;;;2.90;2.65;;;24.10;51.40;;;;;;3576593;40;20073;-70
2021/06/27 08:04:16;;;;;;;4.47;3.85;;;24.20;50.90;;;;;;3576665;40;20029;-70
2021/06/27 08:06:41;;;;;;;3.70;3.30;;;24.30;51.00;;;;;;3578565;40;20083;-70
2021/06/27 08:09:07;;;;;;;2.95;2.40;;;24.30;51.40;;;;;;3569958;40;20567;-70
2021/06/27 08:11:33;;;;;;;3.17;2.30;;;24.40;51.60;;;;;;3579259;40;20041;-77
2021/06/27 08:13:59;;;;;;;3.10;2.65;;;24.50;51.30;;;;;;3578133;40;20131;-68
2021/06/27 08:16:25;;;;;;;2.55;2.35;;;24.60;50.90;;;;;;3570218;40;20716;-70
2021/06/27 08:18:50;;;;;;;5.10;2.65;;;24.70;50.70;;;;;;3576890;40;20021;-70
2021/06/27 08:21:18;;;;;;;3.30;2.53;;;24.80;50.30;;;;;;3577344;40;20031;-70
2021/06/27 08:23:43;;;;;;;2.90;2.25;;;24.80;49.30;;;;;;3578959;40;20128;-70
2021/06/27 08:26:09;;;;;;;3.63;2.30;;;24.90;48.90;;;;;;3576378;40;20855;-70
2021/06/27 08:28:35;;;;;;;2.58;2.38;;;24.80;48.80;;;;;;3573961;40;20029;-70
2021/06/27 08:31:00;;;;;;;2.50;2.30;;;24.90;48.70;;;;;;3571766;40;20117;-71
2021/06/27 08:33:26;;;;;;;3.25;2.20;;;24.90;48.80;;;;;;3570827;40;20968;-70
2021/06/27 08:35:52;;;;;;;2.08;1.92;;;25.00;49.00;;;;;;3569995;40;20122;-70
2021/06/27 08:38:17;;;;;;;2.33;2.10;;;25.10;49.20;;;;;;3571675;40;20036;-70
2021/06/27 08:40:43;;;;;;;4.50;2.97;;;25.20;49.00;;;;;;3563601;40;20032;-70
2021/06/27 08:43:10;;;;;;;4.15;3.70;;;25.30;48.30;;;;;;3574353;40;20724;-70
2021/06/27 08:46:07;;;;;;;3.38;2.20;;;25.30;48.50;;;;;;3572998;40;20048;-70
2021/06/27 08:48:39;;;;;;;3.05;2.75;;;25.40;49.30;;;;;;3572306;40;20086;-70
2021/06/27 08:51:06;;;;;;;3.35;2.70;;;25.50;48.20;;;;;;3574920;40;20066;-70
2021/06/27 08:53:34;;;;;;;5.22;2.47;;;25.50;47.90;;;;;;3569080;40;20039;-74
2021/06/27 08:56:07;;;;;;;2.28;2.08;;;25.60;46.80;;;;;;3577308;40;20020;-69
2021/06/27 08:58:39;;;;;;;2.25;2.00;;;25.60;47.20;;;;;;3574441;40;20512;-70
2021/06/27 09:01:07;;;;;;;2.53;2.13;;;25.70;47.30;;;;;;3573245;40;20040;-69
2021/06/27 09:03:33;;;;;;;3.25;2.70;;;25.80;47.30;;;;;;3571889;40;20025;-69
2021/06/27 09:06:00;;;;;;;2.47;2.28;;;25.90;46.70;;;;;;3569917;40;20072;-69
2021/06/27 09:08:25;;;;;;;3.67;3.25;;;26.10;46.60;;;;;;3576688;40;20517;-69
2021/06/27 09:10:52;;;;;;;2.10;2.00;;;26.20;46.60;;;;;;3567384;40;20032;-69
2021/06/27 09:13:40;;;;;;;2.55;2.35;;;26.40;46.20;;;;;;3576504;40;20048;-70
2021/06/27 09:16:18;;;;;;;4.45;2.30;;;26.40;46.50;;;;;;3574182;40;20036;-70
2021/06/27 09:18:44;;;;;;;2.70;2.10;;;26.50;46.30;;;;;;3574890;40;20036;-69
2021/06/27 09:21:09;;;;;;;3.67;2.30;;;26.50;45.60;;;;;;3562791;40;20037;-69
2021/06/27 09:23:37;;;;;;;2.25;2.05;;;26.50;46.00;;;;;;3569396;40;20432;-70
2021/06/27 09:26:03;;;;;;;4.22;2.20;;;26.40;45.90;;;;;;3571570;40;20781;-70
2021/06/27 09:28:46;;;;;;;3.83;2.17;;;26.40;45.80;;;;;;3572639;40;20072;-70
2021/06/27 09:31:41;;;;;;;2.30;2.10;;;26.60;45.40;;;;;;3568100;40;20048;-70
2021/06/27 09:34:13;;;;;;;2.30;2.10;;;26.60;45.50;;;;;;3577316;40;20142;-70
2021/06/27 09:36:53;;;;;;;3.05;2.60;;;26.60;45.10;;;;;;3576275;40;20043;-70
2021/06/27 09:39:19;;;;;;;2.50;2.30;;;26.60;44.80;;;;;;3575084;40;20041;-71
2021/06/27 09:41:54;;;;;;;2.47;2.28;;;26.60;45.50;;;;;;3569262;40;20143;-70
2021/06/27 09:44:21;;;;;;;2.67;2.40;;;26.60;45.10;;;;;;3573591;40;20507;-71
2021/06/27 09:46:52;;;;;;;3.67;2.35;;;26.60;45.30;;;;;;3575965;40;20035;-71
2021/06/27 09:49:31;;;;;;;3.05;2.03;;;26.60;45.20;;;;;;3566926;40;20032;-71
2021/06/27 09:51:58;;;;;;;2.30;2.10;;;26.60;45.10;;;;;;3573710;40;20632;-69
2021/06/27 09:54:27;;;;;;;2.40;2.20;;;26.60;45.60;;;;;;3572447;40;20127;-70
2021/06/27 09:56:54;;;;;;;3.95;2.10;;;26.60;45.40;;;;;;3570525;40;20061;-70
2021/06/27 09:59:22;;;;;;;3.10;2.38;;;26.70;45.60;;;;;;3561576;40;20130;-70
2021/06/27 10:01:48;;;;;;;3.38;2.85;;;26.70;46.20;;;;;;3573537;40;20040;-70
2021/06/27 10:04:27;;;;;;;3.55;2.50;;;26.80;44.60;;;;;;3575467;40;20414;-70
2021/06/27 10:06:54;;;;;;;4.15;3.28;;;26.90;45.20;;;;;;3575761;40;20159;-70
2021/06/27 10:09:22;;;;;;;5.47;4.32;;;26.90;44.70;;;;;;3578084;40;20050;-70
2021/06/27 10:12:19;;;;;;;3.42;3.05;;;26.90;44.60;;;;;;3578612;40;20039;-70
2021/06/27 10:14:53;;;;;;;2.10;2.00;;;26.90;45.00;;;;;;3573285;40;20763;-70
2021/06/27 10:17:22;;;;;;;2.25;2.03;;;26.90;45.00;;;;;;3574633;40;20308;-70
2021/06/27 10:19:48;;;;;;;2.25;2.05;;;27.00;43.30;;;;;;3575906;40;20048;-71
2021/06/27 10:22:15;;;;;;;2.10;2.00;;;27.00;44.00;;;;;;3574632;40;20485;-71
2021/06/27 10:24:41;;;;;;;1.80;1.70;;;27.00;44.20;;;;;;3576593;40;20036;-71
2021/06/27 10:27:08;;;;;;;2.95;2.17;;;27.10;44.50;;;;;;3576799;40;20028;-70
2021/06/27 10:29:41;;;;;;;2.58;1.90;;;27.30;44.90;;;;;;3571471;40;20088;-69
2021/06/27 10:32:07;;;;;;;2.65;1.83;;;27.30;43.20;;;;;;3570857;40;20122;-69
2021/06/27 10:34:34;;;;;;;2.38;1.77;;;27.30;44.00;;;;;;3574123;40;20036;-69
2021/06/27 10:37:15;;;;;;;2.83;1.88;;;27.30;43.70;;;;;;3575347;40;20025;-69
2021/06/27 10:40:02;;;;;;;1.88;1.77;;;27.40;43.60;;;;;;3575934;40;20032;-69
2021/06/27 10:42:50;;;;;;;4.07;1.70;;;27.50;43.60;;;;;;3573263;40;20040;-69
2021/06/27 10:45:49;;;;;;;2.65;1.80;;;27.60;43.00;;;;;;3572227;40;20098;-69
2021/06/27 10:48:33;;;;;;;1.88;1.70;;;27.70;42.50;;;;;;3577423;40;20036;-72
2021/06/27 10:51:10;;;;;;;1.38;1.27;;;27.70;41.30;;;;;;3574416;40;20025;-69
2021/06/27 10:54:14;;;;;;;1.90;1.63;;;27.70;42.50;;;;;;3577332;40;20039;-70
2021/06/27 10:57:20;;;;;;;2.60;2.15;;;28.30;41.20;;;;;;3574604;40;20025;-71
2021/06/27 10:59:51;;;;;;;1.90;1.70;;;28.90;40.70;;;;;;3544369;40;20096;-71
2021/06/27 11:02:20;;;;;;;2.85;1.80;;;28.70;40.40;;;;;;3575241;40;20364;-71
2021/06/27 11:04:51;;;;;;;3.45;2.58;;;28.40;40.80;;;;;;3579743;40;20032;-71
2021/06/27 11:07:32;;;;;;;2.03;1.90;;;28.30;41.50;;;;;;3578298;40;20705;-71
2021/06/27 11:10:20;;;;;;;1.48;1.38;;;28.20;41.10;;;;;;3577157;40;20157;-70
2021/06/27 11:13:00;;;;;;;1.67;1.30;;;28.10;40.30;;;;;;3576143;40;20044;-70
2021/06/27 11:15:30;;;;;;;2.50;1.48;;;27.90;40.50;;;;;;3573011;40;20040;-70
2021/06/27 11:17:59;;;;;;;2.33;1.40;;;27.90;41.30;;;;;;3573268;40;20425;-70
2021/06/27 11:20:27;;;;;;;2.28;1.73;;;27.80;41.80;;;;;;3573116;40;20044;-70
2021/06/27 11:22:56;;;;;;;1.70;1.60;;;27.90;42.30;;;;;;3572512;40;20029;-70
2021/06/27 11:25:48;;;;;;;1.90;1.33;;;28.00;41.80;;;;;;3558187;40;20033;-72
2021/06/27 11:28:17;;;;;;;2.05;1.60;;;28.00;41.60;;;;;;3571872;40;20591;-71
2021/06/27 11:30:43;;;;;;;2.80;1.25;;;28.00;41.60;;;;;;3571102;40;20087;-70
2021/06/27 11:33:16;;;;;;;1.65;1.40;;;28.00;41.60;;;;;;3556962;40;20060;-71
2021/06/27 11:35:50;;;;;;;1.67;1.58;;;28.10;41.90;;;;;;3577632;40;20028;-71
2021/06/27 11:38:35;;;;;;;1.30;1.13;;;28.20;40.90;;;;;;3576198;40;20509;-71
2021/06/27 11:41:03;;;;;;;1.88;1.40;;;28.20;41.10;;;;;;3576490;40;20095;-70
2021/06/27 11:43:57;;;;;;;1.77;1.50;;;28.10;41.90;;;;;;3568612;40;20167;-71
2021/06/27 11:46:37;;;;;;;2.13;1.42;;;28.20;41.40;;;;;;3569522;40;20322;-71
2021/06/27 11:49:09;;;;;;;4.25;1.70;;;28.20;41.30;;;;;;3569717;40;20024;-71
2021/06/27 11:51:37;;;;;;;1.52;1.40;;;28.20;41.40;;;;;;3570972;40;20434;-71
2021/06/27 11:54:04;;;;;;;1.38;1.27;;;28.10;41.40;;;;;;3570609;40;20041;-70
2021/06/27 11:57:06;;;;;;;1.48;1.30;;;28.10;41.50;;;;;;3578194;40;20067;-71
2021/06/27 11:59:37;;;;;;;1.88;1.48;;;28.10;40.90;;;;;;3577396;40;20033;-71
2021/06/27 12:02:17;;;;;;;1.30;1.17;;;28.20;41.20;;;;;;3578740;40;20041;-71
2021/06/27 12:04:54;;;;;;;1.50;1.38;;;28.30;40.80;;;;;;3578516;40;20033;-72
2021/06/27 12:07:39;;;;;;;1.40;1.30;;;28.40;40.60;;;;;;3579756;40;20063;-71
2021/06/27 12:10:19;;;;;;;1.70;1.60;;;28.50;39.70;;;;;;3576800;40;20092;-72
2021/06/27 12:12:46;;;;;;;2.15;1.77;;;28.50;40.40;;;;;;3577075;40;20025;-71
2021/06/27 12:15:14;;;;;;;2.33;1.70;;;28.50;39.70;;;;;;3576387;40;20032;-71
2021/06/27 12:17:44;;;;;;;1.42;1.33;;;28.50;39.70;;;;;;3576373;40;20069;-76
2021/06/27 12:20:14;;;;;;;3.05;1.30;;;28.40;40.00;;;;;;3576401;40;20049;-77
2021/06/27 12:22:55;;;;;;;1.85;1.70;;;28.50;40.80;;;;;;3576199;40;20134;-71
2021/06/27 12:25:59;;;;;;;1.27;1.17;;;28.40;41.00;;;;;;3577285;40;20025;-71
2021/06/27 12:28:40;;;;;;;1.30;1.20;;;28.40;40.50;;;;;;3563796;40;20126;-71
2021/06/27 12:31:13;;;;;;;2.47;1.40;;;28.40;40.70;;;;;;3567368;40;20431;-71
2021/06/27 12:33:44;;;;;;;2.88;1.52;;;28.40;40.60;;;;;;3574866;40;20744;-71
2021/06/27 12:36:36;;;;;;;1.38;1.27;;;28.40;39.70;;;;;;3574703;40;20029;-71
2021/06/27 12:39:13;;;;;;;2.47;1.55;;;28.30;40.30;;;;;;3573844;40;20036;-71
2021/06/27 12:41:39;;;;;;;1.88;1.52;;;28.40;40.70;;;;;;3570498;40;20119;-71
2021/06/27 12:44:10;;;;;;;3.03;1.60;;;28.50;41.60;;;;;;3567572;40;20458;-71
2021/06/27 12:46:48;;;;;;;2.88;2.33;;;28.70;40.60;;;;;;3572412;40;20040;-71
2021/06/27 12:49:24;;;;;;;2.78;1.65;;;28.90;40.50;;;;;;3576034;40;20381;-71
2021/06/27 12:51:56;;;;;;;1.63;1.52;;;29.00;39.60;;;;;;3568266;40;20040;-71
2021/06/27 12:54:44;;;;;;;3.33;1.85;;;29.10;39.10;;;;;;3576105;40;20107;-71
2021/06/27 12:57:18;;;;;;;1.58;1.35;;;29.10;40.10;;;;;;3573525;40;20041;-76
2021/06/27 12:59:55;;;;;;;1.50;1.40;;;29.10;39.90;;;;;;3569815;40;20051;-71